createdAt,value
2018-09-19T00:01:14.957Z,2.23
2018-09-19T00:03:43.438Z,2.40
2018-09-19T00:06:11.895Z,2.10
2018-09-19T00:08:40.541Z,2.80
2018-09-19T00:11:09.198Z,2.63
2018-09-19T00:13:37.708Z,2.63
2018-09-19T00:16:06.233Z,2.30
2018-09-19T00:18:34.855Z,2.33
2018-09-19T00:21:03.454Z,2.80
2018-09-19T00:23:32.170Z,2.57
2018-09-19T00:26:00.652Z,2.50
2018-09-19T00:28:29.088Z,2.47
2018-09-19T00:30:57.560Z,2.67
2018-09-19T00:33:26.039Z,2.60
2018-09-19T00:35:54.473Z,2.87
2018-09-19T00:38:22.992Z,2.50
2018-09-19T00:40:51.452Z,2.50
2018-09-19T00:43:19.893Z,2.43
2018-09-19T00:45:48.734Z,2.83
2018-09-19T00:48:17.188Z,2.70
2018-09-19T00:50:45.633Z,2.50
2018-09-19T00:53:20.149Z,2.40
2018-09-19T00:55:48.612Z,2.53
2018-09-19T00:58:17.076Z,2.97
2018-09-19T01:00:45.534Z,2.37
2018-09-19T01:03:14.044Z,2.70
2018-09-19T01:05:42.465Z,2.70
2018-09-19T01:08:10.960Z,2.40
2018-09-19T01:10:39.424Z,2.40
2018-09-19T01:13:07.909Z,2.63
2018-09-19T01:15:36.388Z,2.60
2018-09-19T01:18:04.866Z,2.90
2018-09-19T01:20:33.319Z,2.90
2018-09-19T01:23:01.790Z,2.50
2018-09-19T01:25:30.235Z,2.40
2018-09-19T01:27:58.660Z,2.80
2018-09-19T01:30:27.123Z,2.63
2018-09-19T01:32:55.565Z,2.37
2018-09-19T01:35:24.057Z,2.40
2018-09-19T01:37:52.512Z,2.70
2018-09-19T01:40:21.066Z,2.70
2018-09-19T01:42:49.514Z,2.80
2018-09-19T01:45:18.980Z,2.70
2018-09-19T01:47:47.440Z,3.20
2018-09-19T01:50:15.893Z,2.40
2018-09-19T01:52:44.389Z,2.60
2018-09-19T01:55:12.845Z,2.80
2018-09-19T01:57:41.438Z,2.60
2018-09-19T02:00:10.028Z,2.50
2018-09-19T02:02:38.465Z,2.57
2018-09-19T02:05:06.919Z,2.90
2018-09-19T02:07:35.408Z,3.07
2018-09-19T02:10:04.484Z,2.97
2018-09-19T02:12:32.955Z,2.87
2018-09-19T02:15:01.461Z,3.00
2018-09-19T02:17:29.902Z,2.73
2018-09-19T02:19:58.346Z,2.57
2018-09-19T02:22:26.796Z,3.27
2018-09-19T02:24:55.336Z,3.10
2018-09-19T02:27:23.835Z,2.70
2018-09-19T02:29:52.297Z,2.53
2018-09-19T02:32:20.736Z,2.60
2018-09-19T02:34:49.189Z,2.83
2018-09-19T02:37:17.676Z,3.03
2018-09-19T02:39:46.113Z,2.77
2018-09-19T02:42:14.597Z,3.03
2018-09-19T02:44:43.152Z,2.50
2018-09-19T02:47:11.567Z,3.13
2018-09-19T02:49:41.018Z,2.30
2018-09-19T02:52:09.486Z,2.60
2018-09-19T02:54:37.971Z,2.90
2018-09-19T02:57:06.417Z,2.70
2018-09-19T02:59:35.872Z,3.07
2018-09-19T03:02:04.305Z,2.63
2018-09-19T03:04:32.751Z,2.90
2018-09-19T03:07:01.282Z,2.73
2018-09-19T03:09:29.724Z,2.73
2018-09-19T03:11:58.171Z,2.87
2018-09-19T03:14:26.736Z,2.77
2018-09-19T03:16:55.213Z,2.80
2018-09-19T03:19:23.685Z,3.07
2018-09-19T03:21:52.508Z,2.90
2018-09-19T03:24:20.967Z,3.17
2018-09-19T03:26:49.418Z,2.90
2018-09-19T03:29:18.909Z,3.20
2018-09-19T03:31:47.401Z,2.97
2018-09-19T03:34:15.902Z,3.07
2018-09-19T03:36:44.360Z,2.90
2018-09-19T03:39:12.820Z,3.23
2018-09-19T03:41:41.282Z,2.53
2018-09-19T03:44:09.740Z,3.10
2018-09-19T03:46:39.176Z,2.63
2018-09-19T03:49:08.473Z,2.73
2018-09-19T03:51:37.536Z,2.67
2018-09-19T03:54:06.114Z,3.07
2018-09-19T03:56:34.626Z,2.97
2018-09-19T03:59:03.111Z,2.87
2018-09-19T04:01:31.624Z,2.80
2018-09-19T04:04:00.073Z,2.87
2018-09-19T04:06:28.589Z,2.93
2018-09-19T04:08:57.078Z,3.20
2018-09-19T04:11:25.510Z,2.57
2018-09-19T04:13:54.041Z,2.90
2018-09-19T04:16:22.528Z,3.30
2018-09-19T04:18:50.968Z,2.90
2018-09-19T04:21:19.429Z,2.73
2018-09-19T04:23:47.854Z,2.80
2018-09-19T04:26:16.317Z,2.73
2018-09-19T04:28:44.822Z,3.13
2018-09-19T04:31:13.275Z,2.80
2018-09-19T04:33:41.688Z,3.40
2018-09-19T04:36:10.148Z,3.07
2018-09-19T04:38:38.547Z,3.37
2018-09-19T04:41:06.973Z,3.30
2018-09-19T04:43:36.408Z,3.33
2018-09-19T04:46:04.824Z,3.33
2018-09-19T04:48:33.244Z,3.17
2018-09-19T04:51:01.698Z,3.30
2018-09-19T04:53:30.112Z,2.70
2018-09-19T04:55:58.666Z,2.93
2018-09-19T04:58:28.098Z,3.20
2018-09-19T05:00:56.534Z,3.50
2018-09-19T05:03:26.153Z,3.27
2018-09-19T05:05:54.681Z,3.07
2018-09-19T05:08:23.121Z,3.10
2018-09-19T05:10:51.564Z,2.93
2018-09-19T05:13:20.049Z,3.40
2018-09-19T05:15:48.524Z,3.40
2018-09-19T05:18:17.005Z,3.17
2018-09-19T05:20:45.478Z,3.03
2018-09-19T05:23:13.904Z,3.47
2018-09-19T05:25:43.337Z,3.13
2018-09-19T05:28:11.838Z,3.07
2018-09-19T05:30:40.293Z,3.40
2018-09-19T05:33:08.974Z,3.50
2018-09-19T05:35:37.441Z,3.97
2018-09-19T05:38:05.901Z,4.00
2018-09-19T05:40:34.348Z,3.90
2018-09-19T05:43:02.836Z,3.80
2018-09-19T05:45:31.275Z,3.83
2018-09-19T05:47:59.717Z,3.97
2018-09-19T05:50:28.198Z,3.93
2018-09-19T05:52:56.638Z,4.00
2018-09-19T05:55:25.128Z,4.33
2018-09-19T05:57:53.601Z,4.50
2018-09-19T06:00:22.031Z,3.80
2018-09-19T06:02:50.466Z,4.20
2018-09-19T06:05:18.941Z,4.03
2018-09-19T06:07:47.393Z,3.10
2018-09-19T06:10:15.800Z,3.93
2018-09-19T06:12:45.063Z,3.77
2018-09-19T06:15:13.434Z,4.30
2018-09-19T06:17:41.834Z,3.83
2018-09-19T06:20:10.349Z,4.37
2018-09-19T06:22:38.833Z,3.77
2018-09-19T06:25:07.590Z,4.70
2018-09-19T06:27:35.988Z,4.43
2018-09-19T06:30:04.613Z,5.10
2018-09-19T06:32:33.051Z,4.40
2018-09-19T06:35:01.498Z,4.70
2018-09-19T06:37:29.908Z,4.67
2018-09-19T06:39:58.348Z,4.50
2018-09-19T06:42:26.738Z,5.67
2018-09-19T06:44:56.125Z,5.00
2018-09-19T06:47:24.505Z,4.97
2018-09-19T06:49:53.057Z,5.10
2018-09-19T06:52:21.500Z,4.87
2018-09-19T06:54:49.835Z,4.93
2018-09-19T06:57:18.247Z,6.53
2018-09-19T06:59:46.707Z,5.47
2018-09-19T07:02:15.066Z,6.00
2018-09-19T07:04:44.458Z,5.73
2018-09-19T07:07:12.894Z,5.40
2018-09-19T07:09:41.346Z,5.80
2018-09-19T07:12:09.877Z,5.47
2018-09-19T07:14:39.326Z,5.13
2018-09-19T07:17:07.793Z,5.63
2018-09-19T07:19:36.277Z,5.07
2018-09-19T07:22:04.786Z,5.33
2018-09-19T07:24:33.265Z,4.93
2018-09-19T07:27:01.770Z,5.53
2018-09-19T07:29:30.230Z,4.87
2018-09-19T07:31:58.690Z,4.63
2018-09-19T07:34:27.282Z,4.60
2018-09-19T07:36:55.939Z,4.47
2018-09-19T07:39:24.370Z,4.53
2018-09-19T07:41:52.844Z,4.50
2018-09-19T07:44:21.269Z,4.90
2018-09-19T07:46:49.843Z,4.40
2018-09-19T07:49:18.292Z,4.93
2018-09-19T07:51:46.730Z,4.20
2018-09-19T07:54:15.197Z,4.40
2018-09-19T07:56:43.663Z,4.70
2018-09-19T07:59:12.104Z,5.03
2018-09-19T08:01:40.635Z,4.60
2018-09-19T08:04:09.072Z,4.60
2018-09-19T08:06:37.490Z,4.87
2018-09-19T08:09:07.548Z,4.50
2018-09-19T08:11:35.988Z,4.33
2018-09-19T08:14:04.429Z,4.60
2018-09-19T08:16:32.857Z,4.47
2018-09-19T08:19:01.311Z,4.87
2018-09-19T08:21:29.928Z,5.07
2018-09-19T08:23:58.420Z,6.23
2018-09-19T08:26:26.883Z,3.77
2018-09-19T08:28:55.315Z,8.53
2018-09-19T08:31:23.759Z,7.30
2018-09-19T08:33:52.254Z,5.83
2018-09-19T08:36:20.711Z,6.10
2018-09-19T08:38:49.167Z,5.83
2018-09-19T08:41:17.633Z,5.50
2018-09-19T08:43:46.098Z,5.23
2018-09-19T08:46:14.614Z,5.97
2018-09-19T08:48:43.129Z,5.10
2018-09-19T08:51:11.566Z,5.17
2018-09-19T08:53:39.995Z,4.97
2018-09-19T08:56:08.458Z,4.90
2018-09-19T08:58:36.890Z,5.70
2018-09-19T09:01:05.392Z,5.20
2018-09-19T09:03:33.827Z,4.77
2018-09-19T09:06:02.279Z,5.47
2018-09-19T09:08:30.709Z,5.07
2018-09-19T09:10:59.189Z,4.77
2018-09-19T09:13:27.622Z,5.03
2018-09-19T09:15:56.060Z,4.93
2018-09-19T09:18:24.520Z,4.70
2018-09-19T09:20:52.925Z,5.70
2018-09-19T09:23:21.380Z,5.13
2018-09-19T09:25:49.895Z,4.60
2018-09-19T09:28:18.315Z,5.27
2018-09-19T09:30:47.748Z,4.43
2018-09-19T09:33:16.195Z,4.30
2018-09-19T09:35:44.632Z,4.23
2018-09-19T09:38:13.073Z,5.00
2018-09-19T09:40:41.549Z,4.97
2018-09-19T09:43:09.975Z,4.57
2018-09-19T09:45:38.434Z,4.70
2018-09-19T09:48:06.892Z,4.47
2018-09-19T09:50:35.383Z,4.30
2018-09-19T09:53:03.884Z,4.37
2018-09-19T09:55:32.333Z,4.27
2018-09-19T09:58:00.772Z,4.47
2018-09-19T10:00:34.514Z,4.30
2018-09-19T10:03:02.973Z,3.90
2018-09-19T10:05:31.439Z,4.63
2018-09-19T10:08:00.006Z,4.10
2018-09-19T10:10:28.428Z,4.27
2018-09-19T10:12:56.885Z,4.00
2018-09-19T10:15:25.371Z,4.30
2018-09-19T10:17:53.824Z,4.40
2018-09-19T10:20:22.259Z,4.40
2018-09-19T10:22:50.738Z,4.33
2018-09-19T10:25:19.165Z,4.23
2018-09-19T10:27:47.624Z,4.37
2018-09-19T10:30:16.139Z,3.73
2018-09-19T10:32:44.845Z,4.10
2018-09-19T10:35:13.339Z,4.00
2018-09-19T10:37:41.792Z,4.40
2018-09-19T10:40:10.237Z,4.20
2018-09-19T10:42:38.754Z,4.07
2018-09-19T10:45:07.788Z,4.47
2018-09-19T10:47:36.689Z,4.67
2018-09-19T10:50:05.306Z,4.53
2018-09-19T10:52:33.737Z,4.20
2018-09-19T10:55:02.164Z,4.70
2018-09-19T10:57:30.589Z,3.60
2018-09-19T10:59:59.314Z,4.13
2018-09-19T11:02:27.780Z,3.80
2018-09-19T11:04:56.217Z,4.00
2018-09-19T11:07:24.761Z,3.87
2018-09-19T11:09:53.344Z,4.00
2018-09-19T11:12:21.808Z,3.60
2018-09-19T11:14:50.359Z,3.83
2018-09-19T11:17:18.868Z,3.90
2018-09-19T11:19:47.643Z,4.03
2018-09-19T11:22:16.196Z,3.30
2018-09-19T11:24:44.720Z,3.57
2018-09-19T11:27:13.285Z,3.80
2018-09-19T11:29:41.852Z,3.13
2018-09-19T11:32:10.732Z,3.70
2018-09-19T11:34:39.418Z,3.70
2018-09-19T11:37:07.964Z,4.10
2018-09-19T11:39:36.534Z,3.67
2018-09-19T11:42:05.049Z,3.50
2018-09-19T11:44:33.536Z,4.27
2018-09-19T11:47:02.004Z,3.57
2018-09-19T11:49:31.487Z,3.60
2018-09-19T11:52:00.010Z,3.40
2018-09-19T11:54:28.645Z,3.83
2018-09-19T11:56:57.134Z,3.57
2018-09-19T11:59:25.597Z,3.67
2018-09-19T12:01:54.078Z,2.87
2018-09-19T12:04:22.438Z,3.60
2018-09-19T12:06:50.846Z,3.50
2018-09-19T12:09:19.285Z,3.10
2018-09-19T12:11:47.712Z,3.43
2018-09-19T12:14:16.214Z,3.30
2018-09-19T12:16:44.672Z,3.20
2018-09-19T12:19:13.129Z,3.37
2018-09-19T12:21:41.681Z,3.40
2018-09-19T12:24:10.147Z,3.30
2018-09-19T12:26:38.762Z,3.20
2018-09-19T12:29:07.230Z,3.73
2018-09-19T12:31:35.685Z,3.40
2018-09-19T12:34:04.203Z,3.67
2018-09-19T12:36:32.675Z,3.23
2018-09-19T12:39:01.131Z,3.10
2018-09-19T12:41:29.591Z,3.37
2018-09-19T12:43:58.081Z,3.07
2018-09-19T12:46:26.517Z,3.30
2018-09-19T12:48:54.943Z,3.20
2018-09-19T12:51:23.546Z,3.10
2018-09-19T12:53:52.055Z,3.03
2018-09-19T12:56:20.505Z,3.30
2018-09-19T12:58:49.005Z,3.07
2018-09-19T13:01:17.435Z,3.33
2018-09-19T13:03:45.951Z,3.17
2018-09-19T13:06:14.453Z,3.83
2018-09-19T13:08:42.965Z,3.20
2018-09-19T13:11:11.391Z,3.63
2018-09-19T13:13:39.875Z,3.60
2018-09-19T13:16:08.424Z,3.17
2018-09-19T13:18:37.011Z,3.00
2018-09-19T13:21:05.576Z,3.40
2018-09-19T13:23:34.033Z,3.43
2018-09-19T13:26:02.463Z,3.80
2018-09-19T13:28:30.906Z,3.33
2018-09-19T13:31:00.295Z,3.50
2018-09-19T13:33:28.782Z,3.30
2018-09-19T13:35:57.224Z,2.93
2018-09-19T13:38:25.651Z,3.77
2018-09-19T13:40:54.102Z,3.10
2018-09-19T13:43:22.580Z,3.70
2018-09-19T13:45:51.147Z,3.20
2018-09-19T13:48:19.565Z,3.43
2018-09-19T13:51:08.570Z,3.40
2018-09-19T13:53:37.136Z,3.50
2018-09-19T13:56:05.679Z,3.67
2018-09-19T13:58:34.082Z,2.87
2018-09-19T14:01:02.521Z,3.30
2018-09-19T14:03:30.897Z,3.67
2018-09-19T14:05:59.641Z,3.20
2018-09-19T14:08:28.017Z,3.40
2018-09-19T14:10:56.691Z,3.40
2018-09-19T14:13:25.074Z,3.60
2018-09-19T14:15:53.495Z,3.63
2018-09-19T14:18:21.918Z,3.60
2018-09-19T14:20:50.335Z,3.53
2018-09-19T14:23:18.762Z,3.17
2018-09-19T14:25:47.148Z,3.53
2018-09-19T14:28:15.580Z,3.93
2018-09-19T14:30:44.059Z,3.40
2018-09-19T14:33:12.495Z,3.50
2018-09-19T14:35:41.008Z,3.80
2018-09-19T14:38:09.370Z,3.37
2018-09-19T14:40:37.756Z,3.20
2018-09-19T14:43:06.230Z,3.43
2018-09-19T14:45:34.612Z,3.90
2018-09-19T14:48:03.007Z,3.80
2018-09-19T14:50:31.409Z,3.70
2018-09-19T14:53:00.191Z,3.63
2018-09-19T14:55:28.904Z,3.70
2018-09-19T14:57:57.317Z,3.77
2018-09-19T15:00:25.769Z,3.47
2018-09-19T15:02:54.135Z,4.00
2018-09-19T15:05:22.534Z,4.03
2018-09-19T15:07:50.896Z,4.47
2018-09-19T15:10:19.307Z,4.40
2018-09-19T15:12:47.710Z,4.33
2018-09-19T15:16:02.415Z,5.47
2018-09-19T15:18:30.842Z,4.87
2018-09-19T15:20:59.244Z,6.17
2018-09-19T15:23:27.646Z,12.17
2018-09-19T15:25:56.050Z,19.63
2018-09-19T15:28:24.466Z,31.40
2018-09-19T15:30:52.963Z,34.73
2018-09-19T15:33:21.460Z,29.53
2018-09-19T15:35:49.864Z,28.97
2018-09-19T15:38:18.275Z,26.17
2018-09-19T15:40:46.682Z,22.97
2018-09-19T15:43:15.090Z,22.13
2018-09-19T15:45:43.461Z,20.33
2018-09-19T15:48:11.859Z,20.97
2018-09-19T15:50:40.246Z,19.30
2018-09-19T15:53:08.652Z,19.23
2018-09-19T15:55:37.053Z,16.33
2018-09-19T15:58:05.476Z,18.13
2018-09-19T16:00:33.873Z,17.13
2018-09-19T16:03:02.311Z,15.70
2018-09-19T16:05:30.677Z,13.97
2018-09-19T16:07:59.116Z,14.77
2018-09-19T16:10:27.528Z,13.70
2018-09-19T16:12:55.904Z,13.27
2018-09-19T16:15:24.323Z,12.73
2018-09-19T16:17:52.779Z,12.53
2018-09-19T16:20:21.714Z,11.33
2018-09-19T16:22:50.120Z,11.57
2018-09-19T16:25:18.633Z,10.57
2018-09-19T16:27:47.048Z,9.43
2018-09-19T16:30:15.497Z,10.03
2018-09-19T16:32:44.338Z,9.07
2018-09-19T16:35:12.879Z,8.87
2018-09-19T16:37:41.353Z,8.80
2018-09-19T16:40:09.801Z,9.13
2018-09-19T16:42:38.253Z,8.37
2018-09-19T16:45:06.705Z,7.50
2018-09-19T16:47:35.211Z,6.90
2018-09-19T16:50:04.489Z,6.53
2018-09-19T16:52:33.042Z,5.83
2018-09-19T16:55:01.544Z,6.10
2018-09-19T16:57:29.978Z,5.93
2018-09-19T16:59:58.401Z,5.87
2018-09-19T17:02:26.873Z,5.70
2018-09-19T17:04:55.561Z,5.60
2018-09-19T17:07:24.009Z,5.20
2018-09-19T17:09:52.457Z,4.97
2018-09-19T17:12:20.904Z,4.83
2018-09-19T17:14:49.326Z,5.20
2018-09-19T17:17:17.798Z,4.43
2018-09-19T17:19:46.351Z,4.90
2018-09-19T17:22:14.769Z,5.07
2018-09-19T17:24:43.246Z,5.23
2018-09-19T17:27:11.741Z,4.77
2018-09-19T17:29:40.156Z,4.40
2018-09-19T17:32:08.657Z,4.87
2018-09-19T17:34:37.132Z,4.80
2018-09-19T17:37:05.774Z,4.93
2018-09-19T17:39:34.352Z,4.50
2018-09-19T17:42:02.830Z,4.83
2018-09-19T17:44:31.276Z,4.30
2018-09-19T17:46:59.836Z,4.20
2018-09-19T17:49:28.233Z,4.00
2018-09-19T17:51:56.649Z,4.73
2018-09-19T17:54:25.105Z,3.73
2018-09-19T17:56:53.521Z,4.47
2018-09-19T17:59:21.957Z,4.80
2018-09-19T18:01:50.400Z,4.50
2018-09-19T18:04:18.942Z,4.30
2018-09-19T18:06:47.401Z,3.80
2018-09-19T18:09:15.877Z,4.30
2018-09-19T18:11:44.345Z,3.87
2018-09-19T18:14:12.815Z,4.10
2018-09-19T18:16:41.321Z,3.80
2018-09-19T18:19:09.771Z,4.20
2018-09-19T18:21:38.225Z,4.07
2018-09-19T18:24:06.663Z,4.13
2018-09-19T18:26:35.117Z,3.60
2018-09-19T18:29:03.542Z,4.30
2018-09-19T18:31:31.997Z,3.57
2018-09-19T18:34:00.573Z,4.33
2018-09-19T18:36:29.049Z,4.20
2018-09-19T18:38:57.494Z,4.33
2018-09-19T18:41:26.112Z,3.70
2018-09-19T18:43:54.553Z,4.40
2018-09-19T18:46:23.005Z,3.90
2018-09-19T18:48:51.462Z,3.67
2018-09-19T18:51:19.889Z,3.90
2018-09-19T18:53:48.394Z,3.60
2018-09-19T18:56:16.901Z,3.70
2018-09-19T18:58:45.336Z,4.20
2018-09-19T19:01:13.785Z,3.60
2018-09-19T19:03:42.242Z,4.10
2018-09-19T19:06:10.696Z,3.90
2018-09-19T19:08:39.202Z,3.70
2018-09-19T19:11:07.820Z,3.60
2018-09-19T19:13:36.302Z,3.47
2018-09-19T19:16:04.762Z,3.73
2018-09-19T19:18:33.289Z,3.90
2018-09-19T19:21:01.794Z,3.30
2018-09-19T19:23:30.625Z,3.30
2018-09-19T19:25:59.041Z,3.60
2018-09-19T19:28:27.549Z,3.03
2018-09-19T19:30:56.057Z,3.40
2018-09-19T19:33:24.510Z,3.40
2018-09-19T19:35:52.939Z,3.80
2018-09-19T19:38:21.385Z,3.40
2018-09-19T19:40:50.038Z,3.53
2018-09-19T19:43:18.665Z,3.40
2018-09-19T19:45:47.194Z,3.43
2018-09-19T19:48:15.701Z,3.53
2018-09-19T19:50:44.121Z,3.53
2018-09-19T19:53:12.634Z,3.53
2018-09-19T19:55:41.072Z,3.27
2018-09-19T19:58:09.501Z,3.23
2018-09-19T20:00:37.983Z,3.10
2018-09-19T20:03:06.397Z,3.30
2018-09-19T20:05:35.092Z,3.10
2018-09-19T20:08:03.638Z,3.53
2018-09-19T20:10:32.142Z,3.13
2018-09-19T20:13:00.540Z,2.97
2018-09-19T20:15:28.983Z,3.00
2018-09-19T20:17:57.456Z,3.10
2018-09-19T20:20:25.892Z,3.50
2018-09-19T20:22:54.353Z,3.40
2018-09-19T20:25:22.782Z,3.60
2018-09-19T20:27:51.215Z,3.33
2018-09-19T20:30:19.701Z,3.10
2018-09-19T20:32:48.129Z,3.30
2018-09-19T20:35:16.561Z,3.40
2018-09-19T20:37:45.343Z,2.87
2018-09-19T20:40:13.768Z,3.50
2018-09-19T20:42:42.216Z,3.40
2018-09-19T20:45:10.765Z,3.20
2018-09-19T20:47:39.184Z,3.37
2018-09-19T20:50:07.589Z,3.30
2018-09-19T20:52:36.136Z,3.47
2018-09-19T20:55:04.771Z,3.47
2018-09-19T20:57:33.231Z,3.30
2018-09-19T21:00:01.661Z,3.30
2018-09-19T21:02:30.095Z,3.40
2018-09-19T21:04:58.571Z,3.20
2018-09-19T21:07:26.987Z,3.00
2018-09-19T21:09:55.440Z,3.70
2018-09-19T21:12:23.853Z,3.23
2018-09-19T21:14:52.382Z,3.30
2018-09-19T21:17:20.844Z,3.37
2018-09-19T21:19:49.281Z,3.33
2018-09-19T21:22:17.914Z,3.40
2018-09-19T21:24:46.259Z,3.70
2018-09-19T21:27:14.749Z,3.10
2018-09-19T21:29:43.225Z,2.97
2018-09-19T21:32:11.707Z,3.67
2018-09-19T21:34:40.150Z,3.60
2018-09-19T21:37:08.637Z,3.20
2018-09-19T21:39:37.074Z,3.17
2018-09-19T21:42:05.879Z,3.30
2018-09-19T21:44:34.365Z,3.27
2018-09-19T21:47:02.918Z,3.50
2018-09-19T21:49:31.334Z,3.50
2018-09-19T21:51:59.821Z,3.63
2018-09-19T21:54:28.253Z,3.07
2018-09-19T21:56:56.918Z,3.20
2018-09-19T21:59:25.399Z,3.30
2018-09-19T22:01:59.808Z,3.20
2018-09-19T22:04:28.623Z,3.47
2018-09-19T22:06:57.106Z,3.30
2018-09-19T22:09:25.584Z,3.20
2018-09-19T22:11:54.048Z,3.50
2018-09-19T22:14:22.471Z,3.43
2018-09-19T22:16:51.021Z,3.13
2018-09-19T22:19:19.513Z,3.23
2018-09-19T22:21:47.956Z,3.33
2018-09-19T22:24:16.406Z,3.27
2018-09-19T22:26:44.906Z,3.23
2018-09-19T22:29:13.341Z,3.73
2018-09-19T22:31:41.804Z,3.40
2018-09-19T22:34:10.258Z,3.00
2018-09-19T22:36:38.716Z,3.00
2018-09-19T22:39:08.301Z,3.17
2018-09-19T22:41:36.766Z,3.07
2018-09-19T22:44:05.374Z,3.57
2018-09-19T22:46:33.801Z,3.03
2018-09-19T22:49:02.421Z,3.00
2018-09-19T22:51:30.944Z,3.33
2018-09-19T22:53:59.397Z,2.77
2018-09-19T22:56:27.849Z,3.30
2018-09-19T22:58:56.330Z,3.20
2018-09-19T23:01:24.812Z,3.10
2018-09-19T23:03:53.434Z,3.13
2018-09-19T23:06:21.889Z,2.90
2018-09-19T23:08:50.301Z,3.20
2018-09-19T23:11:18.748Z,2.83
2018-09-19T23:13:47.386Z,3.20
2018-09-19T23:16:15.814Z,3.20
2018-09-19T23:18:44.279Z,3.50
2018-09-19T23:21:12.706Z,2.87
2018-09-19T23:23:41.163Z,2.97
2018-09-19T23:26:09.627Z,2.97
2018-09-19T23:28:38.082Z,3.13
2018-09-19T23:31:06.541Z,3.00
2018-09-19T23:33:35.000Z,3.07
2018-09-19T23:36:03.437Z,2.90
2018-09-19T23:38:32.229Z,3.03
2018-09-19T23:41:00.728Z,3.13
2018-09-19T23:43:29.148Z,3.10
2018-09-19T23:45:57.632Z,3.07
2018-09-19T23:48:26.069Z,3.17
2018-09-19T23:50:54.666Z,3.17
2018-09-19T23:53:23.088Z,2.90
2018-09-19T23:55:51.524Z,3.30
2018-09-19T23:58:20.003Z,3.40
